< < Back
Terminal Aerodrome Forecast


Current Version              Previous Versions:   1  2  3  4  5  6  7  8  9  

Terminal Aerodrome Forecast

719
FTUS44 KHUN 281730
TAFHSV
TAF
KHSV 281730Z 2818/2918 12011KT P6SM SCT050
     FM290100 VRB03KT P6SM SCT050
     FM291000 VRB02KT 5SM BR SCT012 BKN060
     FM291400 16008KT P6SM BKN100=



Latest METAR

863
SAUS80 KWBC 290700 RRA
MTRHSV
METAR KHSV 290653Z AUTO 12006KT 10SM OVC085 24/19 A3010 RMK AO2 SLP184
T02390194


USA.gov is the U.S. government's official web portal to all federal, state and local government web resources and services.